Peckham, United Kingdom
Current Conditions -  °F | °C
As of 3:20 PM on Wednesday 26 Nov 2014 (Local Time) from EGLC Reporting Station
Haze Haze  
Wind Chill: 50°   Ceiling: 100
Heat Index: 50°   Visibility: 0.68mi
Dew Point: 48°   Wind: 2mph
Humidity: 94%   Direction: 70°ENE
Pressure: 29.8"   Gusts: NA
Location:  51.48°N, 0.07°W
Report Text: EGLC 261520Z 07002KT 1100 R09/P1500 R27/P1500 BR BKN001 10/09 Q1009
Loading
Personal Weather Stations






























Interactive Weather Map New forecast layout! Learn more

10-Day Weather Forecast

Advertisements
Track Severe Weather on mobile